Time;durP1;ratioP1;P1;durP2;ratioP2;P2;SDS_P1;SDS_P2;PMS_P1;PMS_P2;Temp;Humidity;BMP_temperature;BMP_pressure;BME280_temperature;BME280_humidity;BME280_pressure;Samples;Min_cycle;Max_cycle;Signal;HPM_P1;HPM_P2
2022/07/04 00:00:09;;;;;;;6.95;2.72;;;13.50;99.90;;;;;;5055123;28;20124;-68
2022/07/04 00:02:37;;;;;;;7.43;2.85;;;13.50;99.90;;;;;;5054880;28;20021;-68
2022/07/04 00:05:03;;;;;;;4.45;2.63;;;13.40;99.90;;;;;;5055096;28;20017;-68
2022/07/04 00:07:28;;;;;;;12.02;3.22;;;13.30;99.90;;;;;;5054117;28;20082;-68
2022/07/04 00:09:54;;;;;;;8.38;2.97;;;13.30;99.90;;;;;;5055191;28;20035;-68
2022/07/04 00:12:19;;;;;;;5.50;3.13;;;13.20;99.90;;;;;;5047298;28;20036;-68
2022/07/04 00:14:45;;;;;;;6.22;3.22;;;13.20;99.90;;;;;;5053584;28;20029;-68
2022/07/04 00:17:11;;;;;;;4.88;2.60;;;13.10;99.90;;;;;;5054928;28;20025;-68
2022/07/04 00:19:36;;;;;;;8.93;3.28;;;13.10;99.90;;;;;;5055246;28;20048;-68
2022/07/04 00:22:02;;;;;;;4.97;2.70;;;13.00;99.90;;;;;;5054681;28;20029;-68
2022/07/04 00:24:27;;;;;;;5.82;2.83;;;13.00;99.90;;;;;;5054744;28;20072;-68
2022/07/04 00:26:53;;;;;;;9.13;3.15;;;12.90;99.90;;;;;;5054953;28;20524;-68
2022/07/04 00:29:19;;;;;;;4.10;2.58;;;12.80;99.90;;;;;;5054726;28;20552;-68
2022/07/04 00:31:44;;;;;;;11.77;3.35;;;12.70;99.90;;;;;;5054787;28;20056;-68
2022/07/04 00:34:10;;;;;;;4.20;2.55;;;12.70;99.90;;;;;;5054787;28;20061;-68
2022/07/04 00:36:36;;;;;;;5.03;2.65;;;12.70;99.90;;;;;;5054633;28;20028;-68
2022/07/04 00:39:02;;;;;;;6.50;2.90;;;12.60;99.90;;;;;;5054557;28;20029;-68
2022/07/04 00:41:27;;;;;;;5.40;2.83;;;12.60;99.90;;;;;;5054456;28;20537;-68
2022/07/04 00:44:04;;;;;;;8.32;2.65;;;12.50;99.90;;;;;;5054457;28;20036;-68
2022/07/04 00:46:30;;;;;;;4.05;2.42;;;12.50;99.90;;;;;;5054202;28;20025;-68
2022/07/04 00:48:56;;;;;;;10.18;3.92;;;12.40;99.90;;;;;;5054456;28;20025;-68
2022/07/04 00:51:22;;;;;;;11.25;2.92;;;12.40;99.90;;;;;;5054097;28;20029;-68
2022/07/04 00:53:48;;;;;;;17.75;3.88;;;12.40;99.90;;;;;;5054147;28;20063;-68
2022/07/04 00:56:14;;;;;;;8.02;3.38;;;12.40;99.90;;;;;;5076144;22;20045;-68
2022/07/04 00:58:39;;;;;;;10.15;3.60;;;12.40;99.90;;;;;;5053441;28;20025;-68
2022/07/04 01:01:05;;;;;;;8.43;3.30;;;12.40;99.90;;;;;;5035574;28;20032;-67
2022/07/04 01:03:30;;;;;;;6.38;2.85;;;12.60;99.90;;;;;;5053268;28;20082;-67
2022/07/04 01:05:58;;;;;;;7.13;3.67;;;12.60;99.90;;;;;;5041197;28;20049;-67
2022/07/04 01:08:24;;;;;;;10.43;3.25;;;12.60;99.90;;;;;;5033360;28;20075;-67
2022/07/04 01:10:49;;;;;;;7.80;3.30;;;12.60;99.90;;;;;;5015734;28;20428;-68
2022/07/04 01:13:23;;;;;;;5.78;3.03;;;12.50;99.90;;;;;;5033395;28;20109;-68
2022/07/04 01:15:49;;;;;;;9.10;3.40;;;12.40;99.90;;;;;;5033582;28;20112;-68
2022/07/04 01:18:15;;;;;;;8.02;3.35;;;12.40;99.90;;;;;;5034061;28;20075;-68
2022/07/04 01:20:40;;;;;;;8.18;3.95;;;12.40;99.90;;;;;;5033310;28;20021;-68
2022/07/04 01:23:06;;;;;;;7.90;3.38;;;12.40;99.90;;;;;;5033640;28;20029;-67
2022/07/04 01:25:32;;;;;;;6.50;3.53;;;12.40;99.90;;;;;;5033199;28;20037;-67
2022/07/04 01:28:02;;;;;;;7.03;3.40;;;12.30;99.90;;;;;;5033496;28;20029;-67
2022/07/04 01:30:28;;;;;;;9.50;3.05;;;12.30;99.90;;;;;;5033751;28;20112;-67
2022/07/04 01:32:54;;;;;;;6.35;3.10;;;12.20;99.90;;;;;;5033046;28;20083;-67
2022/07/04 01:35:21;;;;;;;13.43;4.10;;;12.10;99.90;;;;;;5033084;28;20030;-67
2022/07/04 01:37:46;;;;;;;9.43;3.72;;;12.10;99.90;;;;;;5033134;28;20478;-67
2022/07/04 01:40:13;;;;;;;10.02;2.78;;;12.10;99.90;;;;;;5033343;28;20025;-67
2022/07/04 01:42:39;;;;;;;7.65;3.60;;;12.10;99.90;;;;;;5033352;28;20107;-67
2022/07/04 01:45:06;;;;;;;11.77;3.40;;;12.20;99.90;;;;;;5032920;28;20025;-68
2022/07/04 01:47:32;;;;;;;8.10;3.00;;;12.20;99.90;;;;;;5032978;28;20018;-67
2022/07/04 01:49:58;;;;;;;14.68;3.45;;;12.20;99.90;;;;;;5033033;28;20462;-67
2022/07/04 01:52:23;;;;;;;11.25;2.90;;;12.10;99.90;;;;;;5032955;28;20032;-67
2022/07/04 01:54:49;;;;;;;9.20;3.40;;;12.10;99.90;;;;;;5032936;28;20034;-67
2022/07/04 01:57:15;;;;;;;6.60;2.85;;;12.10;99.90;;;;;;5033146;28;20116;-67
2022/07/04 02:02:25;;;;;;;12.40;2.95;;;12.30;99.90;;;;;;5029715;28;20028;-67
2022/07/04 02:04:50;;;;;;;10.55;3.17;;;12.30;99.90;;;;;;5032668;28;20025;-67
2022/07/04 02:07:16;;;;;;;12.93;3.08;;;12.40;99.90;;;;;;5033059;28;20095;-67
2022/07/04 02:09:42;;;;;;;10.90;3.60;;;12.50;99.90;;;;;;5032978;28;20100;-67
2022/07/04 02:14:52;;;;;;;6.45;2.65;;;12.40;99.90;;;;;;5032919;28;20113;-68
2022/07/04 02:17:18;;;;;;;12.68;2.97;;;12.50;99.90;;;;;;5016309;28;20022;-68
2022/07/04 02:19:44;;;;;;;9.38;3.05;;;12.40;99.90;;;;;;5036445;28;20017;-68
2022/07/04 02:22:09;;;;;;;14.80;2.95;;;12.40;99.90;;;;;;5036220;28;20030;-67
2022/07/04 02:24:35;;;;;;;5.47;2.85;;;12.40;99.90;;;;;;5036391;28;20385;-67
2022/07/04 02:27:01;;;;;;;8.75;2.30;;;12.40;99.90;;;;;;5036561;28;20025;-67
2022/07/04 02:29:26;;;;;;;3.05;2.08;;;12.30;99.90;;;;;;5036493;28;20036;-67
2022/07/04 02:31:52;;;;;;;11.68;2.80;;;12.30;99.90;;;;;;5035505;28;20034;-67
2022/07/04 02:34:18;;;;;;;4.10;2.15;;;12.10;99.90;;;;;;5036364;28;20529;-67
2022/07/04 02:36:43;;;;;;;9.13;2.40;;;12.00;99.90;;;;;;5036055;28;20405;-67
2022/07/04 02:39:09;;;;;;;3.05;2.00;;;11.90;99.90;;;;;;5036055;28;20025;-67
2022/07/04 02:41:34;;;;;;;7.88;2.60;;;11.80;99.90;;;;;;5036010;28;20100;-67
2022/07/04 02:44:00;;;;;;;5.85;2.38;;;11.80;99.90;;;;;;5035910;28;20108;-67
2022/07/04 02:46:26;;;;;;;3.65;2.50;;;11.70;99.90;;;;;;5035792;28;20025;-67
2022/07/04 02:48:52;;;;;;;6.28;3.08;;;11.60;99.90;;;;;;5035874;28;20036;-67
2022/07/04 02:51:17;;;;;;;4.05;1.85;;;11.60;99.90;;;;;;5035751;28;20044;-67
2022/07/04 02:53:43;;;;;;;5.30;2.70;;;11.60;99.90;;;;;;5035930;28;20069;-67
2022/07/04 02:56:08;;;;;;;2.88;2.42;;;11.50;99.90;;;;;;5035588;28;20033;-67
2022/07/04 02:58:34;;;;;;;11.32;3.10;;;11.60;99.90;;;;;;5035718;28;20030;-67
2022/07/04 03:01:00;;;;;;;5.05;2.50;;;11.70;99.90;;;;;;5035665;28;20021;-67
2022/07/04 03:03:26;;;;;;;7.28;2.90;;;11.80;99.90;;;;;;5035528;28;20025;-67
2022/07/04 03:05:52;;;;;;;13.40;3.22;;;12.00;99.90;;;;;;5035469;28;20033;-67
2022/07/04 03:08:18;;;;;;;13.95;3.90;;;12.10;99.90;;;;;;5035550;28;20500;-67
2022/07/04 03:10:44;;;;;;;8.52;3.22;;;12.30;99.90;;;;;;5035375;28;20025;-67
2022/07/04 03:13:09;;;;;;;12.00;3.17;;;12.40;99.90;;;;;;5035027;28;20032;-67
2022/07/04 03:15:35;;;;;;;10.73;3.50;;;12.50;99.90;;;;;;5035253;28;20037;-67
2022/07/04 03:18:00;;;;;;;12.38;5.05;;;12.70;99.90;;;;;;5035172;28;20071;-67
2022/07/04 03:20:26;;;;;;;11.18;3.20;;;12.80;99.90;;;;;;5035303;28;20022;-67
2022/07/04 03:22:54;;;;;;;9.20;3.70;;;12.90;99.90;;;;;;5035268;28;20035;-67
2022/07/04 03:25:20;;;;;;;13.93;3.40;;;13.00;99.90;;;;;;5035303;28;20071;-67
2022/07/04 03:27:46;;;;;;;17.92;4.18;;;13.00;99.90;;;;;;5035096;28;20029;-67
2022/07/04 03:30:11;;;;;;;10.77;4.28;;;13.00;99.90;;;;;;5034579;28;20056;-67
2022/07/04 03:32:37;;;;;;;22.42;3.70;;;13.00;99.90;;;;;;5034994;28;20039;-67
2022/07/04 03:35:03;;;;;;;14.15;4.38;;;13.00;99.90;;;;;;5034803;28;20116;-67
2022/07/04 03:37:28;;;;;;;12.98;4.15;;;13.00;99.90;;;;;;5034995;28;20434;-67
2022/07/04 03:39:54;;;;;;;16.25;3.95;;;13.20;99.90;;;;;;5035519;28;20031;-67
2022/07/04 03:42:20;;;;;;;11.52;3.03;;;13.10;99.90;;;;;;5034795;28;20478;-67
2022/07/04 03:44:45;;;;;;;12.35;3.50;;;13.20;99.90;;;;;;5034767;28;20025;-67
2022/07/04 03:47:11;;;;;;;27.90;4.57;;;13.20;99.90;;;;;;5035042;28;20028;-67
2022/07/04 03:49:36;;;;;;;13.65;3.75;;;13.20;99.90;;;;;;5034699;28;20025;-67
2022/07/04 03:52:02;;;;;;;7.70;2.97;;;13.20;99.90;;;;;;5034634;28;20033;-67
2022/07/04 03:54:28;;;;;;;12.00;4.40;;;13.20;99.90;;;;;;5034481;28;20032;-67
2022/07/04 03:56:54;;;;;;;12.48;3.17;;;13.30;99.90;;;;;;5034499;28;20400;-67
2022/07/04 03:59:20;;;;;;;12.82;3.42;;;13.30;99.90;;;;;;5034400;28;20021;-67
2022/07/04 04:01:45;;;;;;;11.25;3.28;;;13.30;99.90;;;;;;5034425;28;20031;-67
2022/07/04 04:06:56;;;;;;;11.75;2.60;;;13.30;99.90;;;;;;5034631;28;20504;-67
2022/07/04 04:09:24;;;;;;;9.70;2.35;;;13.30;99.90;;;;;;5034504;28;20037;-67
2022/07/04 04:11:50;;;;;;;10.07;2.30;;;13.40;99.90;;;;;;5034342;28;20022;-67
2022/07/04 04:14:16;;;;;;;6.00;2.90;;;13.30;99.90;;;;;;5034161;28;20104;-67
2022/07/04 04:16:42;;;;;;;12.45;2.55;;;13.30;99.90;;;;;;5034150;28;20116;-67
2022/07/04 04:19:08;;;;;;;9.35;2.58;;;13.40;99.90;;;;;;5034189;28;20045;-67
2022/07/04 04:21:34;;;;;;;3.97;1.85;;;13.50;99.90;;;;;;5034126;28;20018;-67
2022/07/04 04:24:00;;;;;;;10.30;2.80;;;13.50;99.90;;;;;;5034139;28;20155;-67
2022/07/04 04:26:26;;;;;;;13.95;2.75;;;13.50;99.90;;;;;;5033973;28;20108;-67
2022/07/04 04:28:52;;;;;;;12.90;2.72;;;13.60;99.90;;;;;;5034004;28;20033;-67
2022/07/04 04:31:17;;;;;;;9.55;3.10;;;13.70;99.90;;;;;;5034199;28;20033;-67
2022/07/04 04:33:43;;;;;;;21.88;3.00;;;13.80;99.90;;;;;;5033886;28;20025;-67
2022/07/04 04:36:09;;;;;;;12.63;3.05;;;13.90;99.90;;;;;;5025305;28;20160;-67
2022/07/04 04:38:34;;;;;;;5.18;2.33;;;14.00;99.90;;;;;;5014166;28;20025;-67
2022/07/04 04:41:00;;;;;;;7.63;2.42;;;14.00;99.90;;;;;;5013731;28;20143;-67
2022/07/04 04:43:25;;;;;;;12.73;2.60;;;14.10;99.90;;;;;;5014044;28;20018;-67
2022/07/04 04:45:51;;;;;;;7.38;2.63;;;14.30;99.90;;;;;;5031742;28;20040;-67
2022/07/04 04:48:16;;;;;;;7.32;2.33;;;14.30;99.90;;;;;;5033685;28;20065;-67
2022/07/04 04:50:42;;;;;;;12.98;3.40;;;14.40;99.90;;;;;;5033547;28;20389;-67
2022/07/04 04:53:07;;;;;;;11.98;2.35;;;14.60;99.90;;;;;;5033805;28;20035;-67
2022/07/04 04:55:33;;;;;;;9.25;2.80;;;14.60;99.90;;;;;;5033513;28;20025;-67
2022/07/04 04:57:59;;;;;;;11.50;2.38;;;14.80;99.90;;;;;;5033607;28;20384;-67
2022/07/04 05:00:24;;;;;;;7.32;2.65;;;15.00;99.90;;;;;;5033369;28;20095;-67
2022/07/04 05:02:50;;;;;;;15.45;3.13;;;15.00;99.90;;;;;;5033809;28;20056;-68
2022/07/04 05:05:15;;;;;;;8.75;2.00;;;15.20;99.90;;;;;;5033783;28;20028;-68
2022/07/04 05:07:41;;;;;;;12.50;2.30;;;15.30;99.90;;;;;;5033334;28;20092;-68
2022/07/04 05:10:07;;;;;;;9.35;2.05;;;15.30;99.90;;;;;;5033461;28;20029;-68
2022/07/04 05:12:33;;;;;;;15.60;2.10;;;15.20;99.90;;;;;;5033724;28;20022;-68
2022/07/04 05:14:58;;;;;;;18.33;3.40;;;15.20;99.90;;;;;;5033521;28;20492;-68
2022/07/04 05:17:24;;;;;;;7.82;2.35;;;15.30;99.90;;;;;;5033239;28;20083;-68
2022/07/04 05:19:50;;;;;;;14.35;2.92;;;15.40;99.90;;;;;;5033670;28;20033;-68
2022/07/04 05:22:16;;;;;;;11.98;2.72;;;15.50;99.90;;;;;;5033553;28;20025;-68
2022/07/04 05:24:41;;;;;;;11.88;2.47;;;15.80;99.90;;;;;;5033745;28;20029;-68
2022/07/04 05:27:07;;;;;;;8.68;2.20;;;15.90;99.90;;;;;;5033123;28;20030;-68
2022/07/04 05:29:33;;;;;;;10.57;2.47;;;16.00;99.90;;;;;;5033224;28;20040;-68
2022/07/04 05:31:59;;;;;;;12.07;2.58;;;16.20;99.90;;;;;;5033249;28;20474;-68
2022/07/04 05:34:24;;;;;;;8.05;2.13;;;16.20;99.90;;;;;;5033217;28;20036;-68
2022/07/04 05:36:50;;;;;;;9.25;1.98;;;16.40;99.90;;;;;;5033170;28;20037;-68
2022/07/04 05:39:16;;;;;;;8.57;1.67;;;16.50;99.90;;;;;;5033483;28;20017;-68
2022/07/04 05:41:42;;;;;;;13.00;2.13;;;16.60;99.90;;;;;;5033062;28;20021;-68
2022/07/04 05:44:08;;;;;;;8.45;2.00;;;16.70;99.90;;;;;;5033455;28;20557;-68
2022/07/04 05:46:33;;;;;;;11.07;2.65;;;16.90;99.90;;;;;;5033013;28;20099;-68
2022/07/04 05:48:59;;;;;;;9.65;2.33;;;17.00;99.90;;;;;;5032979;28;20095;-68
2022/07/04 05:51:25;;;;;;;7.22;1.80;;;17.10;99.90;;;;;;5032954;28;20485;-68
2022/07/04 05:53:50;;;;;;;14.50;2.28;;;17.30;99.90;;;;;;5036620;28;20021;-68
2022/07/04 05:56:16;;;;;;;5.30;1.92;;;17.50;99.90;;;;;;5036919;28;20112;-68
2022/07/04 05:58:42;;;;;;;8.43;1.77;;;17.60;99.90;;;;;;5036747;28;20496;-69
2022/07/04 06:01:08;;;;;;;5.68;1.67;;;17.60;99.90;;;;;;5037202;28;20033;-68
2022/07/04 06:03:36;;;;;;;8.00;1.65;;;17.70;99.90;;;;;;5036942;28;20090;-69
2022/07/04 06:06:05;;;;;;;8.23;1.73;;;17.80;99.90;;;;;;5036688;28;20095;-68
2022/07/04 06:08:31;;;;;;;2.47;1.45;;;17.70;99.90;;;;;;5036610;28;20032;-68
2022/07/04 06:10:57;;;;;;;12.68;2.42;;;17.70;99.90;;;;;;5036878;28;20029;-68
2022/07/04 06:13:23;;;;;;;7.93;1.67;;;17.70;99.90;;;;;;5036560;28;20029;-69
2022/07/04 06:15:48;;;;;;;8.00;1.67;;;17.60;99.90;;;;;;5036385;28;20022;-68
2022/07/04 06:18:15;;;;;;;4.68;1.33;;;17.50;99.90;;;;;;5036531;28;20014;-68
2022/07/04 06:20:40;;;;;;;9.20;1.80;;;17.40;99.90;;;;;;5037136;28;20021;-68
2022/07/04 06:23:06;;;;;;;5.18;1.75;;;17.40;99.90;;;;;;5036610;28;20032;-69
2022/07/04 06:25:32;;;;;;;10.23;1.83;;;17.40;99.90;;;;;;5036457;28;20452;-69
2022/07/04 06:27:58;;;;;;;7.93;1.98;;;17.30;99.90;;;;;;5036275;28;20086;-69
2022/07/04 06:30:24;;;;;;;12.98;2.33;;;17.20;99.90;;;;;;5036360;28;20057;-69
2022/07/04 06:32:53;;;;;;;7.82;2.42;;;17.00;99.90;;;;;;5037014;28;20033;-68
2022/07/04 06:38:08;;;;;;;5.88;2.08;;;17.00;99.90;;;;;;5036468;28;20497;-67
2022/07/04 06:40:34;;;;;;;7.53;2.38;;;17.20;99.90;;;;;;5036353;28;20026;-66
2022/07/04 06:43:00;;;;;;;7.63;1.63;;;17.20;99.90;;;;;;5036168;28;20018;-66
2022/07/04 06:45:26;;;;;;;6.90;1.77;;;17.30;99.90;;;;;;5036113;28;20024;-66
2022/07/04 06:47:51;;;;;;;11.10;2.83;;;17.40;99.90;;;;;;5035926;28;20481;-66
2022/07/04 06:50:17;;;;;;;8.23;1.75;;;17.50;99.90;;;;;;5035904;28;20432;-66
2022/07/04 06:52:43;;;;;;;9.93;2.05;;;17.60;99.90;;;;;;5035941;28;20584;-66
2022/07/04 06:55:09;;;;;;;10.02;1.98;;;17.70;99.90;;;;;;5074994;23;20033;-70
2022/07/04 06:57:35;;;;;;;8.35;2.08;;;18.00;99.90;;;;;;5036101;28;20503;-70
2022/07/04 07:00:01;;;;;;;11.63;1.73;;;18.30;99.90;;;;;;5036501;28;20045;-70
2022/07/04 07:02:26;;;;;;;6.32;1.50;;;18.50;99.90;;;;;;5035924;28;20439;-70
2022/07/04 07:04:56;;;;;;;12.40;2.33;;;18.40;99.90;;;;;;5036240;28;20028;-70
2022/07/04 07:07:24;;;;;;;7.50;1.80;;;18.40;99.90;;;;;;5036175;28;20393;-70
2022/07/04 07:09:50;;;;;;;9.20;1.83;;;18.50;99.90;;;;;;5036229;28;20030;-70
2022/07/04 07:12:16;;;;;;;8.63;1.70;;;18.40;99.90;;;;;;5036274;28;20021;-70
2022/07/04 07:14:42;;;;;;;4.50;1.42;;;18.40;99.90;;;;;;5036018;28;20363;-70
2022/07/04 07:17:07;;;;;;;6.68;1.70;;;18.40;99.90;;;;;;5036467;28;20027;-70
2022/07/04 07:19:33;;;;;;;16.35;1.98;;;18.30;99.90;;;;;;5036215;28;20025;-70
2022/07/04 07:21:59;;;;;;;7.72;1.50;;;18.20;99.90;;;;;;5035935;28;20030;-69
2022/07/04 07:24:25;;;;;;;10.90;2.05;;;18.00;99.90;;;;;;5035827;28;20112;-70
2022/07/04 07:26:51;;;;;;;11.60;1.58;;;17.90;99.90;;;;;;5035759;28;20029;-70
2022/07/04 07:29:17;;;;;;;7.38;1.48;;;17.90;99.90;;;;;;5035647;28;20079;-70
2022/07/04 07:31:43;;;;;;;6.22;1.42;;;18.00;99.90;;;;;;5035681;28;20481;-70
2022/07/04 07:34:08;;;;;;;5.18;1.65;;;18.00;99.90;;;;;;5035538;28;20022;-70
2022/07/04 07:36:34;;;;;;;4.63;1.45;;;18.30;99.90;;;;;;5035436;28;20029;-70
2022/07/04 07:39:00;;;;;;;8.13;1.73;;;18.50;99.90;;;;;;5035288;28;20029;-70
2022/07/04 07:41:26;;;;;;;7.13;2.17;;;18.80;99.90;;;;;;5035663;28;20041;-70
2022/07/04 07:43:51;;;;;;;7.03;1.52;;;19.00;99.90;;;;;;5035717;28;20470;-70
2022/07/04 07:46:17;;;;;;;7.03;1.77;;;19.20;99.90;;;;;;5035298;28;20035;-70
2022/07/04 07:48:43;;;;;;;6.63;1.65;;;19.70;99.90;;;;;;5035362;28;20029;-69
2022/07/04 07:51:10;;;;;;;4.63;1.40;;;19.70;99.90;;;;;;5035249;28;20041;-70
2022/07/04 07:53:36;;;;;;;6.47;1.92;;;19.50;99.90;;;;;;5035205;28;20421;-70
2022/07/04 07:56:02;;;;;;;5.97;1.40;;;19.30;99.90;;;;;;5035037;28;20041;-70
2022/07/04 07:58:27;;;;;;;4.97;1.45;;;18.90;99.90;;;;;;5035529;28;20389;-70
2022/07/04 08:00:53;;;;;;;9.15;2.00;;;18.90;99.90;;;;;;5017383;28;20143;-70
2022/07/04 08:06:03;;;;;;;6.32;1.67;;;18.80;99.90;;;;;;5035833;28;20393;-70
2022/07/04 08:08:28;;;;;;;5.45;1.25;;;18.90;99.90;;;;;;5035262;28;20030;-71
2022/07/04 08:10:54;;;;;;;10.43;1.80;;;18.80;99.90;;;;;;5035265;28;20108;-71
2022/07/04 08:13:20;;;;;;;7.00;1.42;;;18.70;99.90;;;;;;5035470;28;20079;-71
2022/07/04 08:15:46;;;;;;;4.55;1.73;;;18.70;99.90;;;;;;5034220;28;20048;-70
2022/07/04 08:18:12;;;;;;;9.18;1.60;;;18.60;99.90;;;;;;5023968;28;20026;-70
2022/07/04 08:20:37;;;;;;;4.65;1.38;;;18.50;99.90;;;;;;5030495;28;20036;-70
2022/07/04 08:23:03;;;;;;;5.97;1.90;;;18.30;99.90;;;;;;5017367;28;20048;-70
2022/07/04 08:25:29;;;;;;;10.65;1.52;;;18.20;99.90;;;;;;5034684;28;20025;-70
2022/07/04 08:27:54;;;;;;;10.18;1.98;;;18.10;99.90;;;;;;5016954;28;20166;-71
2022/07/04 08:30:20;;;;;;;8.82;1.77;;;18.00;99.90;;;;;;5034557;28;20116;-69
2022/07/04 08:32:46;;;;;;;15.27;2.05;;;18.10;99.90;;;;;;5034506;28;20025;-71
2022/07/04 08:35:12;;;;;;;6.28;1.73;;;18.30;99.90;;;;;;5034349;28;20049;-72
2022/07/04 08:37:37;;;;;;;9.77;2.30;;;18.60;99.90;;;;;;5034597;28;20500;-72
2022/07/04 08:40:06;;;;;;;8.77;2.03;;;18.70;99.90;;;;;;5034784;28;20021;-72
2022/07/04 08:42:37;;;;;;;3.75;1.58;;;18.80;99.90;;;;;;5035240;28;20018;-72
2022/07/04 08:45:04;;;;;;;4.43;1.35;;;19.10;99.90;;;;;;5034177;28;20036;-72
2022/07/04 08:47:33;;;;;;;8.50;1.25;;;19.20;99.90;;;;;;5034185;28;20079;-72
2022/07/04 08:50:11;;;;;;;7.40;1.38;;;19.40;99.90;;;;;;5034506;28;20096;-72
2022/07/04 08:52:47;;;;;;;6.05;1.58;;;19.30;99.90;;;;;;5034488;28;20460;-72
2022/07/04 09:00:42;;;;;;;2.47;1.05;;;19.40;99.90;;;;;;5034109;28;20079;-71
2022/07/04 09:03:09;;;;;;;3.40;1.25;;;19.30;99.90;;;;;;5034234;28;20091;-71
2022/07/04 09:05:35;;;;;;;2.85;1.30;;;19.60;99.90;;;;;;5016367;28;20078;-71
2022/07/04 09:08:03;;;;;;;10.00;1.45;;;19.90;99.90;;;;;;5034073;28;20535;-72
2022/07/04 09:10:29;;;;;;;5.78;1.38;;;20.10;99.90;;;;;;5034152;28;20076;-72
2022/07/04 09:12:55;;;;;;;6.22;1.17;;;20.10;99.90;;;;;;5034066;28;20064;-72
2022/07/04 09:15:21;;;;;;;5.95;1.55;;;20.30;99.90;;;;;;5034272;28;20477;-72
2022/07/04 09:17:47;;;;;;;7.18;1.45;;;20.40;99.90;;;;;;5033640;28;20060;-71
2022/07/04 09:20:21;;;;;;;3.08;1.08;;;20.50;99.90;;;;;;5034267;28;20053;-72
2022/07/04 09:22:48;;;;;;;8.80;1.90;;;20.60;99.90;;;;;;5034377;28;20025;-71
2022/07/04 09:25:14;;;;;;;1.98;1.08;;;20.80;99.90;;;;;;5034097;28;20026;-71
2022/07/04 09:27:47;;;;;;;12.95;2.05;;;21.00;99.90;;;;;;5037768;28;20049;-73
2022/07/04 09:30:17;;;;;;;6.70;1.52;;;20.70;99.90;;;;;;5038165;28;20025;-72
2022/07/04 09:32:45;;;;;;;8.35;1.42;;;20.50;99.90;;;;;;5020281;28;20025;-72
2022/07/04 09:35:15;;;;;;;6.03;1.20;;;20.40;99.90;;;;;;5037899;28;20025;-73
2022/07/04 09:37:49;;;;;;;5.78;0.95;;;20.40;99.90;;;;;;5038026;28;20025;-73
2022/07/04 09:40:29;;;;;;;4.15;0.90;;;20.40;99.90;;;;;;5037771;28;20017;-72
2022/07/04 09:42:57;;;;;;;9.65;1.30;;;20.40;99.90;;;;;;5037831;28;20028;-72
2022/07/04 09:45:24;;;;;;;9.45;1.88;;;20.30;99.90;;;;;;5037344;28;20022;-72
2022/07/04 09:47:54;;;;;;;4.32;1.17;;;20.30;99.90;;;;;;5038500;28;20516;-72
2022/07/04 09:50:20;;;;;;;4.13;1.38;;;20.20;99.90;;;;;;5019945;28;20028;-73
2022/07/04 09:52:49;;;;;;;4.82;1.45;;;20.20;99.90;;;;;;5038154;28;20025;-73
2022/07/04 09:55:37;;;;;;;7.28;1.85;;;19.90;99.90;;;;;;5037767;28;20124;-73
2022/07/04 09:58:08;;;;;;;3.15;1.10;;;19.90;99.90;;;;;;5037820;28;20519;-72
2022/07/04 10:00:36;;;;;;;8.43;2.08;;;20.20;99.90;;;;;;5037374;28;20030;-72
2022/07/04 10:03:17;;;;;;;8.38;1.70;;;20.60;99.90;;;;;;5037425;28;20041;-72
2022/07/04 10:05:44;;;;;;;6.45;1.40;;;20.50;99.90;;;;;;5037248;28;20492;-71
2022/07/04 10:08:10;;;;;;;6.50;1.50;;;20.10;99.90;;;;;;5037652;28;20029;-72
2022/07/04 10:10:40;;;;;;;11.23;1.95;;;20.10;99.90;;;;;;5037234;28;20436;-72
2022/07/04 10:13:11;;;;;;;7.07;1.77;;;20.00;99.90;;;;;;5019614;28;20022;-72
2022/07/04 10:15:39;;;;;;;9.30;1.52;;;20.30;99.90;;;;;;5037408;28;20087;-72
2022/07/04 10:18:05;;;;;;;4.35;1.20;;;20.30;99.90;;;;;;5037198;28;20067;-71
2022/07/04 10:20:31;;;;;;;3.60;1.10;;;20.10;99.90;;;;;;5020163;28;20029;-72
2022/07/04 10:22:58;;;;;;;6.40;1.65;;;20.20;99.90;;;;;;5036997;28;20101;-71
2022/07/04 10:25:25;;;;;;;8.85;1.55;;;20.30;99.90;;;;;;5037215;28;20041;-72
2022/07/04 10:27:51;;;;;;;6.30;1.58;;;19.80;99.90;;;;;;5036975;28;20022;-71
2022/07/04 10:30:26;;;;;;;11.43;1.65;;;19.50;99.90;;;;;;5037087;28;20488;-71
2022/07/04 10:32:54;;;;;;;9.18;2.00;;;19.70;99.90;;;;;;5036826;28;20381;-72
2022/07/04 10:35:49;;;;;;;5.13;1.30;;;20.20;99.90;;;;;;5037262;28;20037;-72
2022/07/04 10:38:16;;;;;;;6.57;2.05;;;20.70;99.90;;;;;;5036235;28;20014;-72
2022/07/04 10:40:49;;;;;;;7.85;2.20;;;21.00;99.90;;;;;;5028920;28;20022;-72
2022/07/04 10:43:30;;;;;;;10.10;1.65;;;21.20;99.90;;;;;;5017561;28;20022;-72
2022/07/04 10:46:18;;;;;;;3.78;1.00;;;21.40;99.90;;;;;;5036608;28;20104;-72
2022/07/04 10:48:51;;;;;;;5.53;1.40;;;21.50;99.90;;;;;;5035624;28;20021;-70
2022/07/04 10:51:39;;;;;;;9.85;2.17;;;21.90;99.90;;;;;;5036686;28;20034;-72
2022/07/04 10:54:37;;;;;;;8.52;1.67;;;22.00;99.90;;;;;;5036828;28;20037;-73
2022/07/04 10:57:19;;;;;;;10.55;1.33;;;22.00;99.90;;;;;;5016641;28;20080;-72
2022/07/04 10:59:56;;;;;;;4.18;1.23;;;21.50;99.90;;;;;;5017185;28;20056;-71
2022/07/04 11:02:22;;;;;;;4.53;1.30;;;20.70;99.90;;;;;;5017311;28;20494;-72
2022/07/04 11:05:11;;;;;;;7.15;1.23;;;20.90;99.90;;;;;;5016510;28;20052;-71
2022/07/04 11:07:36;;;;;;;6.15;1.60;;;21.10;99.90;;;;;;5034604;28;20033;-72
2022/07/04 11:10:11;;;;;;;7.35;1.40;;;21.30;99.90;;;;;;5036495;28;20559;-72
2022/07/04 11:12:55;;;;;;;5.68;1.48;;;21.50;99.90;;;;;;5036134;28;20033;-72
2022/07/04 11:17:53;;;;;;;14.98;2.08;;;21.50;99.90;;;;;;5036633;28;19959;-71
2022/07/04 11:20:20;;;;;;;4.50;1.27;;;21.90;99.90;;;;;;5035968;28;20061;-71
2022/07/04 11:22:46;;;;;;;9.00;1.80;;;22.40;99.90;;;;;;5036319;28;20032;-71
2022/07/04 11:25:12;;;;;;;8.52;1.45;;;22.40;99.90;;;;;;5035777;28;20025;-70
2022/07/04 11:27:38;;;;;;;5.03;1.77;;;21.80;99.90;;;;;;5018100;28;20040;-72
2022/07/04 11:30:04;;;;;;;11.13;1.75;;;21.30;99.90;;;;;;5036083;28;20355;-71
2022/07/04 11:32:32;;;;;;;9.43;1.70;;;21.40;99.90;;;;;;5035662;28;20481;-71
2022/07/04 11:34:58;;;;;;;3.40;1.38;;;21.60;99.90;;;;;;5036036;28;20485;-71
2022/07/04 11:37:24;;;;;;;6.85;1.33;;;21.60;99.90;;;;;;5035794;28;20025;-71
2022/07/04 11:45:22;;;;;;;8.70;1.65;;;21.30;99.90;;;;;;5035696;28;20037;-72
2022/07/04 11:47:49;;;;;;;7.60;1.40;;;21.50;99.90;;;;;;5018007;28;20030;-71
2022/07/04 11:50:18;;;;;;;5.65;1.23;;;21.70;99.90;;;;;;5034395;28;20097;-71
2022/07/04 11:52:47;;;;;;;5.60;1.98;;;21.50;99.90;;;;;;5035717;28;20025;-70
2022/07/04 11:55:15;;;;;;;11.77;2.33;;;21.00;99.90;;;;;;5035125;28;20053;-70
2022/07/04 11:57:43;;;;;;;10.27;1.08;;;20.60;99.90;;;;;;5035532;28;20033;-69
2022/07/04 12:00:13;;;;;;;6.43;0.82;;;20.60;99.90;;;;;;5035275;28;20022;-68
2022/07/04 12:02:39;;;;;;;2.88;0.80;;;21.30;99.90;;;;;;5035023;28;20021;-70
2022/07/04 12:05:10;;;;;;;5.20;1.00;;;21.70;99.90;;;;;;5035370;28;20529;-70
2022/07/04 12:07:44;;;;;;;3.40;1.23;;;21.60;99.90;;;;;;5035402;28;20029;-70
2022/07/04 12:10:14;;;;;;;6.93;1.60;;;21.00;99.90;;;;;;5035489;28;20032;-70
2022/07/04 12:12:54;;;;;;;2.38;1.00;;;20.70;99.90;;;;;;5034792;28;20025;-70
2022/07/04 12:15:22;;;;;;;7.55;1.83;;;21.00;99.90;;;;;;5035363;28;20029;-70
2022/07/04 12:17:54;;;;;;;7.30;1.20;;;21.30;99.90;;;;;;5035132;28;20466;-70
2022/07/04 12:20:23;;;;;;;8.40;1.30;;;21.80;99.90;;;;;;5035204;28;20155;-70
2022/07/04 12:22:57;;;;;;;11.80;1.38;;;21.30;99.90;;;;;;5034690;28;20033;-70
2022/07/04 12:25:36;;;;;;;2.10;1.20;;;21.40;99.90;;;;;;5034859;28;20017;-71
2022/07/04 12:28:04;;;;;;;3.17;1.23;;;21.20;99.90;;;;;;5017106;28;20024;-70
2022/07/04 12:30:33;;;;;;;8.90;0.80;;;21.60;99.90;;;;;;5034640;28;20151;-70
2022/07/04 12:33:03;;;;;;;6.60;1.48;;;22.00;99.90;;;;;;5034711;28;20026;-70
2022/07/04 12:35:47;;;;;;;3.15;1.02;;;22.40;99.90;;;;;;5034546;28;20018;-70
2022/07/04 12:38:33;;;;;;;8.32;1.02;;;23.20;99.90;;;;;;5034746;28;20018;-70
2022/07/04 12:41:01;;;;;;;6.75;0.90;;;23.20;99.90;;;;;;5034964;28;20377;-70
2022/07/04 12:43:41;;;;;;;3.72;1.02;;;23.50;99.90;;;;;;5034484;28;20018;-70
2022/07/04 12:46:26;;;;;;;4.05;0.88;;;23.50;99.90;;;;;;5034261;28;20029;-69
2022/07/04 12:48:55;;;;;;;6.40;0.88;;;23.40;99.90;;;;;;5035059;28;20347;-70
2022/07/04 12:51:22;;;;;;;2.65;0.73;;;23.20;99.90;;;;;;5034258;28;20478;-70
2022/07/04 12:53:50;;;;;;;7.75;1.33;;;23.40;99.90;;;;;;5034218;28;20026;-70
2022/07/04 12:56:40;;;;;;;2.65;1.00;;;23.60;99.90;;;;;;5016715;28;20040;-69
2022/07/04 12:59:18;;;;;;;3.58;0.85;;;23.80;99.90;;;;;;5034098;28;20029;-68
2022/07/04 13:01:45;;;;;;;6.13;1.25;;;23.50;99.90;;;;;;5033730;28;20048;-68
2022/07/04 13:04:11;;;;;;;4.55;0.90;;;23.70;99.90;;;;;;5034335;28;20030;-68
2022/07/04 13:06:38;;;;;;;2.60;0.70;;;23.50;99.90;;;;;;5033849;28;20022;-68
2022/07/04 13:09:05;;;;;;;2.65;0.95;;;23.50;99.90;;;;;;5034089;28;20500;-69
2022/07/04 13:14:15;;;;;;;4.28;1.33;;;23.40;99.90;;;;;;5033810;28;20035;-69